createdAt,value
2017-08-14T00:00:11.534Z,0
2017-08-14T00:01:21.923Z,0
2017-08-14T00:02:32.011Z,0
2017-08-14T00:03:42.028Z,0
2017-08-14T00:04:52.069Z,0
2017-08-14T00:06:02.422Z,0
2017-08-14T00:07:12.778Z,0
2017-08-14T00:08:22.880Z,0
2017-08-14T00:09:33.248Z,0
2017-08-14T00:10:43.281Z,0
2017-08-14T00:11:53.309Z,0
2017-08-14T00:13:03.353Z,0
2017-08-14T00:14:13.429Z,0
2017-08-14T00:15:23.491Z,0
2017-08-14T00:16:33.853Z,0
2017-08-14T00:17:43.878Z,0
2017-08-14T00:18:54.220Z,0
2017-08-14T00:20:04.320Z,0
2017-08-14T00:21:14.689Z,0
2017-08-14T00:22:25.031Z,0
2017-08-14T00:23:35.068Z,0
2017-08-14T00:24:45.099Z,0
2017-08-14T00:25:55.205Z,0
2017-08-14T00:27:05.569Z,0
2017-08-14T00:28:15.935Z,0
2017-08-14T00:29:26.284Z,0
2017-08-14T00:30:36.633Z,0
2017-08-14T00:31:46.727Z,0
2017-08-14T00:32:57.073Z,0
2017-08-14T00:34:07.110Z,0
2017-08-14T00:35:17.161Z,0
2017-08-14T00:36:27.196Z,0
2017-08-14T00:37:37.605Z,0
2017-08-14T00:38:47.960Z,0
2017-08-14T00:39:58.311Z,0
2017-08-14T00:41:08.669Z,0
2017-08-14T00:42:19.011Z,0
2017-08-14T00:43:29.103Z,0
2017-08-14T00:44:39.454Z,0
2017-08-14T00:45:49.487Z,0
2017-08-14T00:46:59.834Z,0
2017-08-14T00:48:10.179Z,0
2017-08-14T00:49:20.559Z,0
2017-08-14T00:50:30.914Z,0
2017-08-14T00:51:41.256Z,0
2017-08-14T00:52:51.626Z,0
2017-08-14T00:54:03.816Z,0
2017-08-14T00:55:13.910Z,0
2017-08-14T00:56:24.243Z,0
2017-08-14T00:57:34.290Z,0
2017-08-14T00:58:44.640Z,0
2017-08-14T00:59:54.983Z,0
2017-08-14T01:01:05.384Z,0
2017-08-14T01:02:15.457Z,0
2017-08-14T01:03:25.802Z,0
2017-08-14T01:04:36.154Z,0
2017-08-14T01:05:46.202Z,0
2017-08-14T01:06:56.582Z,0
2017-08-14T01:08:07.534Z,0
2017-08-14T01:09:17.276Z,0
2017-08-14T01:10:27.338Z,0
2017-08-14T01:11:37.682Z,0
2017-08-14T01:12:47.756Z,0
2017-08-14T01:13:57.790Z,0
2017-08-14T01:15:07.835Z,0
2017-08-14T01:16:18.179Z,0
2017-08-14T01:17:28.524Z,0
2017-08-14T01:18:38.949Z,0
2017-08-14T01:19:49.294Z,0
2017-08-14T01:20:59.660Z,0
2017-08-14T01:22:09.713Z,0
2017-08-14T01:23:20.068Z,0
2017-08-14T01:24:30.458Z,0
2017-08-14T01:25:40.799Z,0
2017-08-14T01:26:51.129Z,0
2017-08-14T01:28:01.482Z,0
2017-08-14T01:29:11.835Z,0
2017-08-14T01:30:21.916Z,0
2017-08-14T01:31:32.256Z,0
2017-08-14T01:32:42.616Z,0
2017-08-14T01:33:52.648Z,0
2017-08-14T01:35:02.989Z,0
2017-08-14T01:36:13.387Z,0
2017-08-14T01:37:23.748Z,0
2017-08-14T01:38:34.081Z,0
2017-08-14T01:39:44.428Z,0
2017-08-14T01:40:54.763Z,0
2017-08-14T01:42:04.838Z,0
2017-08-14T01:43:15.189Z,0
2017-08-14T01:44:25.244Z,0
2017-08-14T01:45:35.296Z,0
2017-08-14T01:46:45.645Z,0
2017-08-14T01:47:55.416Z,0
2017-08-14T01:49:05.752Z,0
2017-08-14T01:50:15.794Z,0
2017-08-14T01:51:26.160Z,0
2017-08-14T01:52:35.878Z,0
2017-08-14T01:53:45.655Z,0
2017-08-14T01:54:55.375Z,0
2017-08-14T01:56:05.417Z,0
2017-08-14T01:57:15.760Z,0
2017-08-14T01:58:25.791Z,0
2017-08-14T01:59:36.178Z,0
2017-08-14T02:00:46.528Z,0
2017-08-14T02:01:56.571Z,0
2017-08-14T02:03:06.939Z,0
2017-08-14T02:04:16.689Z,0
2017-08-14T02:05:26.787Z,0
2017-08-14T02:06:36.835Z,0
2017-08-14T02:07:46.887Z,0
2017-08-14T02:08:56.628Z,0
2017-08-14T02:10:06.972Z,0
2017-08-14T02:11:16.750Z,0
2017-08-14T02:12:28.837Z,0
2017-08-14T02:13:38.564Z,0
2017-08-14T02:14:48.910Z,0
2017-08-14T02:15:59.266Z,0
2017-08-14T02:17:09.668Z,0
2017-08-14T02:18:20.016Z,0
2017-08-14T02:19:30.363Z,0
2017-08-14T02:20:40.714Z,0
2017-08-14T02:21:51.047Z,0
2017-08-14T02:23:00.823Z,0
2017-08-14T02:24:11.180Z,0
2017-08-14T02:25:21.552Z,0
2017-08-14T02:26:31.883Z,0
2017-08-14T02:27:41.943Z,0
2017-08-14T02:28:52.362Z,0
2017-08-14T02:30:02.986Z,0
2017-08-14T02:31:13.016Z,0
2017-08-14T02:32:23.058Z,0
2017-08-14T02:33:33.421Z,0
2017-08-14T02:34:43.507Z,0
2017-08-14T02:35:53.874Z,0
2017-08-14T02:37:04.215Z,0
2017-08-14T02:38:14.254Z,0
2017-08-14T02:39:24.293Z,0
2017-08-14T02:40:34.695Z,0
2017-08-14T02:41:44.732Z,0
2017-08-14T02:42:54.133Z,0
2017-08-14T02:44:04.490Z,0
2017-08-14T02:45:14.862Z,0
2017-08-14T02:46:24.959Z,0
2017-08-14T02:47:35.324Z,0
2017-08-14T02:48:45.375Z,0
2017-08-14T02:49:55.409Z,0
2017-08-14T02:51:05.433Z,0
2017-08-14T02:52:15.841Z,0
2017-08-14T02:53:26.189Z,0
2017-08-14T02:54:36.533Z,0
2017-08-14T02:55:46.576Z,0
2017-08-14T02:56:56.622Z,0
2017-08-14T02:58:07.010Z,0
2017-08-14T02:59:17.361Z,0
2017-08-14T03:00:27.700Z,0
2017-08-14T03:01:38.042Z,0
2017-08-14T03:33:16.629Z,32
2017-08-14T03:34:26.586Z,36
2017-08-14T03:35:36.612Z,48
2017-08-14T03:36:46.329Z,52
2017-08-14T03:37:56.368Z,64
2017-08-14T03:39:06.762Z,68
2017-08-14T03:40:17.098Z,80
2017-08-14T03:41:27.446Z,92
2017-08-14T03:42:37.789Z,100
2017-08-14T03:43:47.816Z,116
2017-08-14T03:44:58.188Z,132
2017-08-14T03:46:08.215Z,144
2017-08-14T03:47:18.548Z,164
2017-08-14T03:48:28.571Z,180
2017-08-14T03:49:38.928Z,200
2017-08-14T03:50:49.337Z,216
2017-08-14T03:51:59.686Z,236
2017-08-14T03:53:09.728Z,264
2017-08-14T03:54:19.762Z,284
2017-08-14T03:55:29.788Z,312
2017-08-14T03:56:40.203Z,340
2017-08-14T03:57:50.537Z,364
2017-08-14T03:59:00.871Z,396
2017-08-14T04:00:11.220Z,428
2017-08-14T04:01:21.554Z,460
2017-08-14T04:02:31.638Z,496
2017-08-14T04:03:41.985Z,528
2017-08-14T04:04:52.332Z,564
2017-08-14T04:06:02.085Z,600
2017-08-14T04:07:11.800Z,632
2017-08-14T04:08:21.882Z,672
2017-08-14T04:09:31.923Z,704
2017-08-14T04:10:42.274Z,740
2017-08-14T04:11:52.631Z,776
2017-08-14T04:13:02.990Z,816
2017-08-14T04:14:13.071Z,848
2017-08-14T04:15:23.432Z,888
2017-08-14T04:16:33.475Z,920
2017-08-14T04:17:43.520Z,960
2017-08-14T04:18:53.860Z,996
2017-08-14T04:20:04.263Z,1052
2017-08-14T04:21:14.612Z,1144
2017-08-14T04:22:24.651Z,1196
2017-08-14T04:23:34.671Z,1164
2017-08-14T04:24:45.009Z,1188
2017-08-14T04:25:54.785Z,1228
2017-08-14T04:27:05.120Z,1592
2017-08-14T04:28:15.154Z,2484
2017-08-14T04:29:25.520Z,2692
2017-08-14T04:30:35.237Z,2028
2017-08-14T04:31:45.644Z,1540
2017-08-14T04:32:55.998Z,1528
2017-08-14T04:34:06.337Z,1556
2017-08-14T04:35:16.699Z,1620
2017-08-14T04:36:27.051Z,1596
2017-08-14T04:37:37.470Z,1596
2017-08-14T04:38:47.814Z,2424
2017-08-14T04:39:57.866Z,3536
2017-08-14T04:41:08.202Z,3840
2017-08-14T04:42:18.556Z,2488
2017-08-14T04:43:28.636Z,1904
2017-08-14T04:44:39.007Z,3256
2017-08-14T04:45:49.048Z,1904
2017-08-14T04:46:59.069Z,1916
2017-08-14T04:48:09.104Z,1924
2017-08-14T04:49:19.181Z,1976
2017-08-14T04:50:29.521Z,2128
2017-08-14T04:51:39.862Z,2060
2017-08-14T04:52:50.213Z,2848
2017-08-14T04:54:00.579Z,6368
2017-08-14T04:55:10.974Z,9544
2017-08-14T04:56:21.312Z,10172
2017-08-14T04:57:31.653Z,10536
2017-08-14T04:58:42.538Z,10820
2017-08-14T04:59:52.891Z,11016
2017-08-14T05:01:02.988Z,11348
2017-08-14T05:02:13.017Z,11364
2017-08-14T05:03:22.749Z,11368
2017-08-14T05:04:33.107Z,11536
2017-08-14T05:05:43.139Z,11496
2017-08-14T05:06:53.211Z,11300
2017-08-14T05:08:03.591Z,11408
2017-08-14T05:09:13.933Z,11560
2017-08-14T05:10:24.268Z,11640
2017-08-14T05:11:34.621Z,11648
2017-08-14T05:12:44.391Z,11484
2017-08-14T05:13:54.467Z,11500
2017-08-14T05:15:04.824Z,11808
2017-08-14T05:16:14.543Z,12020
2017-08-14T05:17:24.589Z,11828
2017-08-14T05:18:34.671Z,11620
2017-08-14T05:19:45.030Z,11820
2017-08-14T05:20:55.361Z,11892
2017-08-14T05:22:05.400Z,11816
2017-08-14T05:23:15.756Z,11832
2017-08-14T05:24:26.151Z,11952
2017-08-14T05:25:36.179Z,11964
2017-08-14T05:26:46.546Z,11984
2017-08-14T05:27:56.893Z,12084
2017-08-14T05:29:07.258Z,12128
2017-08-14T05:30:17.359Z,11964
2017-08-14T05:31:27.698Z,11984
2017-08-14T05:32:37.746Z,11996
2017-08-14T05:33:47.803Z,11992
2017-08-14T05:34:58.150Z,12084
2017-08-14T05:36:08.241Z,11876
2017-08-14T05:37:18.268Z,11824
2017-08-14T05:38:28.619Z,11940
2017-08-14T05:39:38.976Z,11744
2017-08-14T05:40:49.021Z,11684
2017-08-14T05:41:59.130Z,11600
2017-08-14T05:43:09.166Z,11704
2017-08-14T05:44:19.202Z,11692
2017-08-14T05:45:29.241Z,11596
2017-08-14T05:46:39.577Z,11480
2017-08-14T05:47:49.994Z,11432
2017-08-14T05:49:00.348Z,11384
2017-08-14T05:50:10.697Z,11168
2017-08-14T05:51:21.073Z,10876
2017-08-14T05:52:31.438Z,10756
2017-08-14T05:53:41.833Z,10736
2017-08-14T05:54:51.854Z,10668
2017-08-14T05:56:02.200Z,10052
2017-08-14T05:57:12.547Z,6640
2017-08-14T05:58:22.584Z,3616
2017-08-14T05:59:32.989Z,3348
2017-08-14T06:00:43.341Z,3324
2017-08-14T06:01:53.697Z,3328
2017-08-14T06:03:03.732Z,3332
2017-08-14T06:04:14.085Z,3344
2017-08-14T06:05:24.179Z,3356
2017-08-14T06:06:35.069Z,3356
2017-08-14T06:07:45.112Z,3384
2017-08-14T06:08:55.461Z,3392
2017-08-14T06:10:05.504Z,3408
2017-08-14T06:11:15.586Z,3416
2017-08-14T06:12:25.639Z,3424
2017-08-14T06:13:35.997Z,3436
2017-08-14T06:14:46.355Z,3440
2017-08-14T06:15:56.087Z,3456
2017-08-14T06:17:06.489Z,3460
2017-08-14T06:18:16.514Z,3468
2017-08-14T06:19:26.861Z,3484
2017-08-14T06:20:37.203Z,3488
2017-08-14T06:21:47.535Z,3496
2017-08-14T06:22:57.927Z,3504
2017-08-14T06:24:08.292Z,3512
2017-08-14T06:25:18.640Z,3524
2017-08-14T06:26:28.696Z,3532
2017-08-14T06:27:38.728Z,3544
2017-08-14T06:28:50.780Z,3692
2017-08-14T06:30:00.799Z,4028
2017-08-14T06:31:10.515Z,4188
2017-08-14T06:32:20.555Z,4192
2017-08-14T06:33:30.584Z,4184
2017-08-14T06:34:41.003Z,4160
2017-08-14T06:35:51.364Z,4128
2017-08-14T06:37:01.702Z,4096
2017-08-14T06:38:12.035Z,4068
2017-08-14T06:39:22.384Z,4028
2017-08-14T06:40:32.783Z,4008
2017-08-14T06:41:43.133Z,3980
2017-08-14T06:42:53.178Z,3868
2017-08-14T06:44:03.547Z,3740
2017-08-14T06:45:13.910Z,3700
2017-08-14T06:46:24.297Z,3692
2017-08-14T06:47:34.338Z,3680
2017-08-14T06:48:44.705Z,3684
2017-08-14T06:49:55.057Z,3684
2017-08-14T06:51:04.794Z,3696
2017-08-14T06:52:15.210Z,3712
2017-08-14T06:53:25.580Z,3732
2017-08-14T06:54:35.934Z,3752
2017-08-14T06:55:45.966Z,3768
2017-08-14T06:56:55.682Z,3784
2017-08-14T06:58:05.754Z,3800
2017-08-14T06:59:15.482Z,3816
2017-08-14T07:00:25.521Z,3828
2017-08-14T07:01:35.875Z,3852
2017-08-14T07:02:46.217Z,3876
2017-08-14T07:03:56.589Z,3884
2017-08-14T07:05:06.978Z,3896
2017-08-14T07:06:17.313Z,3920
2017-08-14T07:07:27.337Z,3932
2017-08-14T07:08:37.692Z,3952
2017-08-14T07:09:48.099Z,3964
2017-08-14T07:10:58.460Z,3980
2017-08-14T07:12:08.486Z,3996
2017-08-14T07:13:18.837Z,4008
2017-08-14T07:14:29.197Z,4028
2017-08-14T07:15:39.615Z,4040
2017-08-14T07:16:49.973Z,4060
2017-08-14T07:18:00.326Z,4080
2017-08-14T07:19:10.681Z,4104
2017-08-14T07:20:20.417Z,4120
2017-08-14T07:21:30.824Z,4136
2017-08-14T07:22:41.192Z,4148
2017-08-14T07:23:51.552Z,4164
2017-08-14T07:25:01.273Z,4184
2017-08-14T07:26:11.310Z,4208
2017-08-14T07:27:21.713Z,4216
2017-08-14T07:28:32.067Z,4240
2017-08-14T07:29:42.428Z,4260
2017-08-14T07:30:52.461Z,4280
2017-08-14T07:32:02.817Z,4284
2017-08-14T07:33:12.925Z,4304
2017-08-14T07:34:23.291Z,4312
2017-08-14T07:35:34.606Z,4332
2017-08-14T07:36:44.952Z,4340
2017-08-14T07:37:55.001Z,4380
2017-08-14T07:39:05.645Z,4380
2017-08-14T07:40:16.009Z,4400
2017-08-14T07:41:26.360Z,4420
2017-08-14T07:42:36.698Z,4428
2017-08-14T07:43:46.756Z,4448
2017-08-14T07:44:57.141Z,4468
2017-08-14T07:46:07.485Z,4476
2017-08-14T07:47:17.843Z,4500
2017-08-14T07:48:27.895Z,4508
2017-08-14T07:49:38.263Z,4488
2017-08-14T07:50:48.361Z,4508
2017-08-14T07:51:58.725Z,4524
2017-08-14T07:53:09.069Z,4536
2017-08-14T07:54:19.400Z,4544
2017-08-14T07:55:29.453Z,4564
2017-08-14T07:56:40.689Z,4588
2017-08-14T07:57:51.070Z,4604
2017-08-14T07:59:01.437Z,4620
2017-08-14T08:00:11.509Z,4632
2017-08-14T08:01:21.853Z,4652
2017-08-14T08:02:31.931Z,4664
2017-08-14T08:03:41.992Z,4672
2017-08-14T08:04:52.046Z,4696
2017-08-14T08:06:02.406Z,4708
2017-08-14T08:07:12.455Z,4728
2017-08-14T08:08:24.223Z,4736
2017-08-14T08:09:34.605Z,4748
2017-08-14T08:10:44.964Z,4764
2017-08-14T08:11:54.987Z,4772
2017-08-14T08:13:05.337Z,4792
2017-08-14T08:14:15.776Z,4808
2017-08-14T08:15:26.138Z,4812
2017-08-14T08:16:36.488Z,4848
2017-08-14T08:17:46.826Z,4860
2017-08-14T08:18:56.894Z,4944
2017-08-14T08:20:06.985Z,4948
2017-08-14T08:21:17.355Z,4888
2017-08-14T08:22:27.705Z,4896
2017-08-14T08:23:38.053Z,4908
2017-08-14T08:24:48.411Z,4912
2017-08-14T08:26:01.331Z,4928
2017-08-14T08:27:11.690Z,4940
2017-08-14T08:28:22.032Z,4944
2017-08-14T08:29:32.387Z,4976
2017-08-14T08:30:44.246Z,4984
2017-08-14T08:31:54.680Z,5000
2017-08-14T08:33:05.037Z,5012
2017-08-14T08:34:15.429Z,5032
2017-08-14T08:35:25.477Z,5044
2017-08-14T08:36:35.854Z,5048
2017-08-14T08:37:46.299Z,5060
2017-08-14T08:38:56.668Z,5072
2017-08-14T08:40:07.034Z,5076
2017-08-14T08:41:18.282Z,5088
2017-08-14T08:42:28.650Z,5100
2017-08-14T08:43:38.965Z,5092
2017-08-14T08:44:49.331Z,5132
2017-08-14T08:45:59.922Z,5164
2017-08-14T08:47:10.296Z,5176
2017-08-14T08:48:20.772Z,5188
2017-08-14T08:49:31.183Z,5208
2017-08-14T08:50:41.230Z,5228
2017-08-14T08:51:51.306Z,5236
2017-08-14T08:53:01.686Z,5264
2017-08-14T08:54:12.120Z,5288
2017-08-14T08:55:22.548Z,5296
2017-08-14T08:56:32.928Z,5312
2017-08-14T08:57:42.976Z,5336
2017-08-14T08:58:53.363Z,5344
2017-08-14T09:00:03.817Z,5356
2017-08-14T09:01:14.300Z,5360
2017-08-14T09:02:25.175Z,5380
2017-08-14T09:03:34.948Z,5380
2017-08-14T09:04:45.388Z,5400
2017-08-14T09:05:55.517Z,5456
2017-08-14T09:07:05.636Z,5440
2017-08-14T09:08:16.043Z,5428
2017-08-14T09:09:26.418Z,5484
2017-08-14T09:10:36.477Z,5516
2017-08-14T09:11:46.873Z,5520
2017-08-14T09:12:57.322Z,5516
2017-08-14T09:14:07.583Z,5536
2017-08-14T09:15:17.999Z,5564
2017-08-14T09:16:28.432Z,5600
2017-08-14T09:17:38.830Z,5616
2017-08-14T09:18:48.628Z,5640
2017-08-14T09:19:59.015Z,5680
2017-08-14T09:21:09.411Z,5692
2017-08-14T09:22:20.030Z,5724
2017-08-14T09:23:30.429Z,5724
2017-08-14T09:24:40.852Z,5756
2017-08-14T09:25:50.917Z,5808
2017-08-14T09:27:01.311Z,5952
2017-08-14T09:28:11.707Z,5896
2017-08-14T09:29:22.108Z,5940
2017-08-14T09:30:32.550Z,5892
2017-08-14T09:31:42.945Z,5828
2017-08-14T09:32:53.317Z,5892
2017-08-14T09:34:03.689Z,5964
2017-08-14T09:35:14.063Z,5964
2017-08-14T09:36:24.163Z,6000
2017-08-14T09:37:34.555Z,6088
2017-08-14T09:38:44.929Z,6128
2017-08-14T09:39:55.303Z,6108
2017-08-14T09:41:05.399Z,6156
2017-08-14T09:42:15.842Z,6148
2017-08-14T09:43:26.224Z,6172
2017-08-14T09:44:36.600Z,6164
2017-08-14T09:45:46.981Z,6156
2017-08-14T09:46:57.359Z,6136
2017-08-14T09:48:07.783Z,6208
2017-08-14T09:49:18.157Z,6180
2017-08-14T09:50:28.519Z,6260
2017-08-14T09:51:38.892Z,6376
2017-08-14T09:52:49.268Z,6456
2017-08-14T09:53:59.682Z,6700
2017-08-14T09:55:10.082Z,6892
2017-08-14T09:56:20.475Z,7100
2017-08-14T09:57:30.849Z,7296
2017-08-14T09:58:40.926Z,7388
2017-08-14T09:59:51.378Z,7496
2017-08-14T10:01:01.745Z,7704
2017-08-14T10:02:11.810Z,7796
2017-08-14T10:03:21.870Z,7700
2017-08-14T10:04:31.910Z,7636
2017-08-14T10:05:42.003Z,7672
2017-08-14T10:06:52.363Z,7688
2017-08-14T10:08:02.436Z,7548
2017-08-14T10:09:12.189Z,7592
2017-08-14T10:10:22.566Z,7516
2017-08-14T10:11:32.684Z,7472
2017-08-14T10:12:42.766Z,7512
2017-08-14T10:13:53.130Z,7552
2017-08-14T10:15:03.495Z,7560
2017-08-14T10:16:13.878Z,7592
2017-08-14T10:17:24.284Z,6760
2017-08-14T10:18:34.680Z,5740
2017-08-14T10:19:45.238Z,3964
2017-08-14T10:20:55.600Z,3936
2017-08-14T10:22:05.958Z,4040
2017-08-14T10:23:16.361Z,4144
2017-08-14T10:24:26.742Z,4204
2017-08-14T10:25:37.122Z,5280
2017-08-14T10:26:47.504Z,8484
2017-08-14T10:27:57.854Z,8680
2017-08-14T10:29:07.956Z,8712
2017-08-14T10:30:18.026Z,8700
2017-08-14T10:31:29.544Z,8664
2017-08-14T10:32:39.605Z,8604
2017-08-14T10:33:49.955Z,8632
2017-08-14T10:35:00.064Z,8656
2017-08-14T10:36:10.469Z,8620
2017-08-14T10:37:20.849Z,8384
2017-08-14T10:38:30.595Z,8220
2017-08-14T10:39:43.072Z,8072
2017-08-14T10:40:53.507Z,7936
2017-08-14T10:42:03.557Z,7940
2017-08-14T10:43:13.938Z,7996
2017-08-14T10:44:24.002Z,7920
2017-08-14T10:45:34.061Z,7876
2017-08-14T10:46:43.851Z,7932
2017-08-14T10:47:54.208Z,8080
2017-08-14T10:49:06.827Z,8108
2017-08-14T10:50:17.195Z,8196
2017-08-14T10:51:27.254Z,8192
2017-08-14T10:52:37.653Z,8068
2017-08-14T10:53:48.031Z,7896
2017-08-14T10:54:58.064Z,7876
2017-08-14T10:56:08.110Z,7920
2017-08-14T10:57:18.468Z,7908
2017-08-14T10:58:28.573Z,7996
2017-08-14T10:59:38.950Z,8076
2017-08-14T11:00:49.311Z,8132
2017-08-14T11:01:59.701Z,8000
2017-08-14T11:03:10.056Z,7824
2017-08-14T11:04:20.469Z,7720
2017-08-14T11:05:30.531Z,7588
2017-08-14T11:06:40.885Z,7456
2017-08-14T11:07:51.229Z,7372
2017-08-14T11:09:01.578Z,7328
2017-08-14T11:10:11.659Z,7324
2017-08-14T11:11:22.042Z,7336
2017-08-14T11:12:32.408Z,7412
2017-08-14T11:13:42.925Z,7564
2017-08-14T11:14:53.326Z,7700
2017-08-14T11:16:05.641Z,7768
2017-08-14T11:17:16.018Z,7836
2017-08-14T11:18:26.385Z,7956
2017-08-14T11:19:36.760Z,8032
2017-08-14T11:20:47.158Z,8068
2017-08-14T11:21:58.650Z,8104
2017-08-14T11:23:09.036Z,8140
2017-08-14T11:24:19.403Z,8108
2017-08-14T11:25:29.760Z,8164
2017-08-14T11:26:40.103Z,8216
2017-08-14T11:27:50.533Z,8268
2017-08-14T11:29:00.588Z,8336
2017-08-14T11:30:10.943Z,8348
2017-08-14T11:31:20.682Z,8332
2017-08-14T11:32:31.038Z,8312
2017-08-14T11:33:41.449Z,8332
2017-08-14T11:34:52.771Z,8332
2017-08-14T11:36:02.862Z,8436
2017-08-14T11:37:13.241Z,8504
2017-08-14T11:38:23.626Z,8456
2017-08-14T11:39:34.053Z,8360
2017-08-14T11:40:44.437Z,8352
2017-08-14T11:41:56.697Z,8296
2017-08-14T11:43:07.049Z,8260
2017-08-14T11:44:19.088Z,8208
2017-08-14T11:45:29.553Z,8188
2017-08-14T11:46:39.950Z,8128
2017-08-14T11:47:49.991Z,8068
2017-08-14T11:49:00.349Z,8032
2017-08-14T11:50:10.445Z,8012
2017-08-14T11:51:20.864Z,8032
2017-08-14T11:52:31.224Z,8008
2017-08-14T11:53:41.582Z,7960
2017-08-14T11:54:51.954Z,7900
2017-08-14T11:56:02.332Z,7964
2017-08-14T11:57:12.745Z,7856
2017-08-14T11:58:24.268Z,6108
2017-08-14T11:59:34.337Z,5432
2017-08-14T12:00:45.482Z,3024
2017-08-14T12:01:55.796Z,2900
2017-08-14T12:03:06.263Z,2888
2017-08-14T12:04:16.848Z,2916
2017-08-14T12:05:27.204Z,2912
2017-08-14T12:06:37.586Z,2900
2017-08-14T12:07:48.010Z,2876
2017-08-14T12:08:58.438Z,2900
2017-08-14T12:10:08.805Z,2940
2017-08-14T12:11:19.159Z,3084
2017-08-14T12:12:29.538Z,3444
2017-08-14T12:13:39.915Z,4420
2017-08-14T12:14:50.033Z,3396
2017-08-14T12:16:00.121Z,3444
2017-08-14T12:17:10.516Z,5544
2017-08-14T12:18:20.875Z,3948
2017-08-14T12:19:31.232Z,5852
2017-08-14T12:20:44.020Z,6972
2017-08-14T12:21:54.093Z,8896
2017-08-14T12:23:04.166Z,4152
2017-08-14T12:24:14.524Z,4100
2017-08-14T12:25:24.593Z,4100
2017-08-14T12:26:35.035Z,4072
2017-08-14T12:27:45.411Z,4088
2017-08-14T12:28:55.462Z,4316
2017-08-14T12:30:07.841Z,5080
2017-08-14T12:31:20.214Z,9628
2017-08-14T12:32:30.312Z,9280
2017-08-14T12:33:40.365Z,9764
2017-08-14T12:34:50.420Z,9856
2017-08-14T12:36:00.776Z,9580
2017-08-14T12:37:11.172Z,9444
2017-08-14T12:38:21.578Z,4604
2017-08-14T12:39:31.955Z,9276
2017-08-14T12:40:42.338Z,9200
2017-08-14T12:41:52.736Z,8700
2017-08-14T12:43:03.156Z,9204
2017-08-14T12:44:13.200Z,9116
2017-08-14T12:45:23.567Z,8980
2017-08-14T12:46:33.611Z,8948
2017-08-14T12:47:43.990Z,8868
2017-08-14T12:48:54.411Z,8840
2017-08-14T12:50:04.480Z,8860
2017-08-14T12:51:14.855Z,8988
2017-08-14T12:52:26.694Z,9196
2017-08-14T12:53:37.064Z,9356
2017-08-14T12:54:47.479Z,9436
2017-08-14T12:55:57.820Z,9432
2017-08-14T12:57:07.872Z,9352
2017-08-14T12:58:17.640Z,9224
2017-08-14T12:59:27.996Z,9048
2017-08-14T13:00:38.129Z,8928
2017-08-14T13:01:48.166Z,8920
2017-08-14T13:02:58.241Z,8960
2017-08-14T13:04:08.592Z,8908
2017-08-14T13:05:18.645Z,8768
2017-08-14T13:06:29.062Z,8672
2017-08-14T13:07:39.142Z,8584
2017-08-14T13:08:49.521Z,8360
2017-08-14T13:09:59.565Z,5628
2017-08-14T13:11:09.922Z,4292
2017-08-14T13:12:20.353Z,5308
2017-08-14T13:13:30.717Z,3796
2017-08-14T13:14:40.770Z,3636
2017-08-14T13:15:51.131Z,3780
2017-08-14T13:17:01.492Z,3748
2017-08-14T13:18:11.570Z,5224
2017-08-14T13:19:21.942Z,6068
2017-08-14T13:20:31.723Z,7776
2017-08-14T13:21:41.816Z,7296
2017-08-14T13:22:51.876Z,6956
2017-08-14T13:24:02.240Z,6628
2017-08-14T13:25:12.605Z,6636
2017-08-14T13:26:25.211Z,3604
2017-08-14T13:27:35.594Z,3520
2017-08-14T13:28:47.402Z,3836
2017-08-14T13:29:57.944Z,6336
2017-08-14T13:31:08.301Z,4052
2017-08-14T13:32:18.708Z,7084
2017-08-14T13:33:29.084Z,7708
2017-08-14T13:34:39.111Z,7836
2017-08-14T13:35:49.170Z,7872
2017-08-14T13:36:59.531Z,7940
2017-08-14T13:38:09.956Z,8012
2017-08-14T13:39:20.318Z,8044
2017-08-14T13:40:30.714Z,7992
2017-08-14T13:41:41.821Z,8016
2017-08-14T13:42:52.186Z,8040
2017-08-14T13:44:04.228Z,8060
2017-08-14T13:45:14.609Z,8080
2017-08-14T13:46:24.662Z,8100
2017-08-14T13:47:36.177Z,8032
2017-08-14T13:48:53.829Z,7892
2017-08-14T13:50:04.264Z,7836
2017-08-14T13:51:14.317Z,7824
2017-08-14T13:52:24.703Z,7852
2017-08-14T13:53:35.073Z,7844
2017-08-14T13:54:45.498Z,7888
2017-08-14T13:55:55.572Z,7452
2017-08-14T13:57:07.976Z,7696
2017-08-14T13:58:18.013Z,7560
2017-08-14T13:59:28.394Z,7532
2017-08-14T14:00:38.831Z,7476
2017-08-14T14:01:49.210Z,7432
2017-08-14T14:02:59.259Z,7424
2017-08-14T14:04:09.675Z,7464
2017-08-14T14:05:20.034Z,7464
2017-08-14T14:06:30.472Z,7412
2017-08-14T14:07:40.870Z,7348
2017-08-14T14:08:51.242Z,7300
2017-08-14T14:10:01.617Z,7260
2017-08-14T14:11:11.985Z,7264
2017-08-14T14:12:24.369Z,7288
2017-08-14T14:13:34.744Z,7272
2017-08-14T14:14:45.102Z,7196
2017-08-14T14:15:55.477Z,7104
2017-08-14T14:17:05.226Z,7000
2017-08-14T14:18:15.646Z,6896
2017-08-14T14:19:26.010Z,6780
2017-08-14T14:20:36.372Z,6680
2017-08-14T14:21:46.436Z,6640
2017-08-14T14:22:56.804Z,6672
2017-08-14T14:24:07.256Z,6636
2017-08-14T14:25:17.623Z,6588
2017-08-14T14:26:27.991Z,6128
2017-08-14T14:27:38.349Z,6236
2017-08-14T14:28:48.710Z,6404
2017-08-14T14:29:59.146Z,6464
2017-08-14T14:31:09.509Z,6516
2017-08-14T14:32:19.891Z,6312
2017-08-14T14:33:29.921Z,6164
2017-08-14T14:34:40.535Z,6092
2017-08-14T14:35:50.952Z,6388
2017-08-14T14:37:01.307Z,6376
2017-08-14T14:38:11.359Z,6364
2017-08-14T14:39:21.395Z,6340
2017-08-14T14:40:31.762Z,6316
2017-08-14T14:41:41.874Z,6316
2017-08-14T14:42:56.956Z,6288
2017-08-14T14:44:07.349Z,6220
2017-08-14T14:45:17.406Z,6092
2017-08-14T14:46:27.780Z,6032
2017-08-14T14:47:38.209Z,5984
2017-08-14T14:48:48.584Z,5836
2017-08-14T14:49:59.706Z,5960
2017-08-14T14:51:09.750Z,5944
2017-08-14T14:52:20.108Z,5936
2017-08-14T14:53:30.526Z,5932
2017-08-14T14:54:40.265Z,5936
2017-08-14T14:55:50.003Z,5944
2017-08-14T14:57:00.386Z,6044
2017-08-14T14:58:10.783Z,6008
2017-08-14T14:59:21.205Z,5844
2017-08-14T15:00:31.568Z,5668
2017-08-14T15:01:41.951Z,5212
2017-08-14T15:02:52.319Z,5260
2017-08-14T15:04:02.716Z,5380
2017-08-14T15:05:13.153Z,5512
2017-08-14T15:06:23.518Z,5504
2017-08-14T15:07:33.876Z,5336
2017-08-14T15:08:43.938Z,5268
2017-08-14T15:09:54.299Z,4716
2017-08-14T15:11:04.081Z,5008
2017-08-14T15:12:14.147Z,4924
2017-08-14T15:13:24.525Z,4744
2017-08-14T15:14:34.897Z,3652
2017-08-14T15:15:45.257Z,3300
2017-08-14T15:16:55.669Z,2992
2017-08-14T15:18:06.029Z,3956
2017-08-14T15:19:16.082Z,4980
2017-08-14T15:20:26.433Z,3340
2017-08-14T15:21:37.515Z,2932
2017-08-14T15:22:47.932Z,3356
2017-08-14T15:23:57.980Z,4948
2017-08-14T15:25:08.031Z,4984
2017-08-14T15:26:18.409Z,4936
2017-08-14T15:27:28.768Z,4876
2017-08-14T15:28:39.190Z,4824
2017-08-14T15:29:49.237Z,4796
2017-08-14T15:30:59.301Z,4756
2017-08-14T15:32:09.325Z,4728
2017-08-14T15:33:19.402Z,4712
2017-08-14T15:34:29.226Z,4644
2017-08-14T15:35:39.271Z,4320
2017-08-14T15:36:49.332Z,3992
2017-08-14T15:37:59.707Z,3712
2017-08-14T15:39:10.107Z,4160
2017-08-14T15:40:20.202Z,4480
2017-08-14T15:41:30.243Z,4528
2017-08-14T15:42:41.530Z,4488
2017-08-14T15:43:51.589Z,4416
2017-08-14T15:45:01.663Z,4412
2017-08-14T15:46:11.764Z,4228
2017-08-14T15:47:22.161Z,4028
2017-08-14T15:48:32.304Z,3916
2017-08-14T15:49:42.044Z,3872
2017-08-14T15:50:52.421Z,3868
2017-08-14T15:52:03.193Z,3820
2017-08-14T15:53:13.577Z,3752
2017-08-14T15:54:23.630Z,3796
2017-08-14T15:55:34.021Z,3932
2017-08-14T15:56:47.373Z,4032
2017-08-14T15:57:57.783Z,4092
2017-08-14T15:59:07.823Z,4072
2017-08-14T16:00:18.201Z,4068
2017-08-14T16:01:28.581Z,4068
2017-08-14T16:02:38.947Z,4028
2017-08-14T16:03:49.356Z,3980
2017-08-14T16:05:02.267Z,3928
2017-08-14T16:06:12.631Z,3880
2017-08-14T16:07:23.010Z,3820
2017-08-14T16:08:33.366Z,3768
2017-08-14T16:09:43.792Z,3744
2017-08-14T16:10:53.842Z,3740
2017-08-14T16:12:06.831Z,3712
2017-08-14T16:13:17.205Z,3672
2017-08-14T16:14:27.647Z,3640
2017-08-14T16:15:38.067Z,3640
2017-08-14T16:16:48.141Z,3620
2017-08-14T16:17:59.436Z,3592
2017-08-14T16:19:09.177Z,3576
2017-08-14T16:20:19.550Z,3540
2017-08-14T16:21:29.951Z,3468
2017-08-14T16:22:40.350Z,3392
2017-08-14T16:23:53.832Z,3352